Time;durP1;ratioP1;P1;durP2;ratioP2;P2;SDS_P1;SDS_P2;PMS_P1;PMS_P2;Temp;Humidity;BMP_temperature;BMP_pressure;BME280_temperature;BME280_humidity;BME280_pressure;Samples;Min_cycle;Max_cycle;Signal;HPM_P1;HPM_P2
2021/08/10 00:00:55;;;;;;;13.13;5.38;;;;;;;;;;5076348;28;20042;-73
2021/08/10 00:03:21;;;;;;;9.20;5.88;;;;;;;;;;5073844;28;20461;-68
2021/08/10 00:05:48;;;;;;;13.43;5.70;;;;;;;;;;5074075;28;20561;-68
2021/08/10 00:08:17;;;;;;;11.68;5.40;;;;;;;;;;5074353;28;20395;-69
2021/08/10 00:10:44;;;;;;;6.60;4.82;;;;;;;;;;5074623;28;20060;-68
2021/08/10 00:13:14;;;;;;;9.38;6.30;;;;;;;;;;5074429;28;20100;-68
2021/08/10 00:15:40;;;;;;;7.90;5.40;;;;;;;;;;5076593;28;20025;-69
2021/08/10 00:18:07;;;;;;;9.60;5.47;;;;;;;;;;5072104;28;20042;-73
2021/08/10 00:20:33;;;;;;;10.23;5.15;;;;;;;;;;5073323;28;20020;-68
2021/08/10 00:23:00;;;;;;;7.82;5.88;;;;;;;;;;5074696;28;20034;-68
2021/08/10 00:25:26;;;;;;;8.38;5.93;;;;;;;;;;5073078;28;20521;-69
2021/08/10 00:27:53;;;;;;;9.18;5.65;;;;;;;;;;5070035;28;20077;-68
2021/08/10 00:30:19;;;;;;;10.73;5.47;;;;;;;;;;5076240;28;20345;-69
2021/08/10 00:32:45;;;;;;;13.57;6.15;;;;;;;;;;5067954;28;20376;-68
2021/08/10 00:35:11;;;;;;;15.40;6.18;;;;;;;;;;5073363;28;20111;-69
2021/08/10 00:37:38;;;;;;;14.60;6.18;;;;;;;;;;5069528;28;20031;-69
2021/08/10 00:40:04;;;;;;;9.50;6.15;;;;;;;;;;5074793;28;20036;-69
2021/08/10 00:42:30;;;;;;;9.65;6.07;;;;;;;;;;5069638;28;20028;-68
2021/08/10 00:44:57;;;;;;;11.77;6.10;;;;;;;;;;5076219;28;20032;-69
2021/08/10 00:47:23;;;;;;;14.40;7.20;;;;;;;;;;5069808;28;20380;-68
2021/08/10 00:49:49;;;;;;;16.73;6.85;;;;;;;;;;5074084;28;20035;-68
2021/08/10 00:52:15;;;;;;;10.52;6.22;;;;;;;;;;5074886;28;20050;-75
2021/08/10 00:54:42;;;;;;;15.27;6.10;;;;;;;;;;5071662;28;20631;-69
2021/08/10 00:57:08;;;;;;;15.10;6.30;;;;;;;;;;5074328;28;20035;-71
2021/08/10 00:59:34;;;;;;;9.00;6.32;;;;;;;;;;5070002;28;20024;-68
2021/08/10 01:02:01;;;;;;;12.13;6.75;;;;;;;;;;5065571;28;20025;-68
2021/08/10 01:04:27;;;;;;;14.88;6.68;;;;;;;;;;5077304;28;20032;-69
2021/08/10 01:07:04;;;;;;;10.80;6.55;;;;;;;;;;5070808;28;20033;-75
2021/08/10 01:09:47;;;;;;;9.05;6.10;;;;;;;;;;5076296;28;20111;-68
2021/08/10 01:12:16;;;;;;;9.07;6.63;;;;;;;;;;5072149;28;20156;-68
2021/08/10 01:14:51;;;;;;;12.70;6.68;;;;;;;;;;5075039;28;20028;-72
2021/08/10 01:17:18;;;;;;;14.20;7.22;;;;;;;;;;5072342;28;20462;-68
2021/08/10 01:19:47;;;;;;;14.05;6.47;;;;;;;;;;5071651;28;20089;-68
2021/08/10 01:22:16;;;;;;;14.93;6.72;;;;;;;;;;5075046;28;20525;-68
2021/08/10 01:24:45;;;;;;;12.00;6.10;;;;;;;;;;5073447;28;20030;-68
2021/08/10 01:27:27;;;;;;;13.15;6.45;;;;;;;;;;5068208;28;20119;-68
2021/08/10 01:29:53;;;;;;;;;;;;;;;;;;5074322;28;20020;-74
2021/08/10 01:32:19;;;;;;;14.80;6.57;;;;;;;;;;5072750;28;20011;-69
2021/08/10 01:34:47;;;;;;;13.05;6.65;;;;;;;;;;5070107;28;20081;-69
2021/08/10 01:37:23;;;;;;;8.40;6.60;;;;;;;;;;5072011;28;20052;-74
2021/08/10 01:39:52;;;;;;;8.30;6.13;;;;;;;;;;5071871;28;20142;-68
2021/08/10 01:42:18;;;;;;;13.60;6.63;;;;;;;;;;5075012;28;20020;-71
2021/08/10 01:44:45;;;;;;;13.27;6.25;;;;;;;;;;5068995;28;20042;-69
2021/08/10 01:47:12;;;;;;;9.18;6.05;;;;;;;;;;5072414;28;20024;-70
2021/08/10 01:49:39;;;;;;;7.70;6.38;;;;;;;;;;5072910;28;20024;-68
2021/08/10 01:52:05;;;;;;;8.60;6.00;;;;;;;;;;5072046;28;20036;-71
2021/08/10 01:54:32;;;;;;;12.07;6.28;;;;;;;;;;5069049;28;20025;-68
2021/08/10 01:56:59;;;;;;;12.38;7.00;;;;;;;;;;5079375;28;20040;-68
2021/08/10 01:59:27;;;;;;;9.48;6.70;;;;;;;;;;5071923;28;20421;-68
2021/08/10 02:01:54;;;;;;;14.18;6.60;;;;;;;;;;5068125;28;20369;-68
2021/08/10 02:04:20;;;;;;;11.27;6.13;;;;;;;;;;5075796;28;20035;-68
2021/08/10 02:06:47;;;;;;;11.75;6.80;;;;;;;;;;5071502;28;20033;-68
2021/08/10 02:09:15;;;;;;;8.90;7.15;;;;;;;;;;5073552;28;20024;-68
2021/08/10 02:11:41;;;;;;;11.30;7.15;;;;;;;;;;5071752;28;20058;-68
2021/08/10 02:14:09;;;;;;;14.63;7.35;;;;;;;;;;5068358;28;20377;-68
2021/08/10 02:16:36;;;;;;;15.70;7.05;;;;;;;;;;5068043;28;20020;-68
2021/08/10 02:19:03;;;;;;;9.98;6.50;;;;;;;;;;5073223;28;20632;-68
2021/08/10 02:21:36;;;;;;;10.88;6.63;;;;;;;;;;5070406;28;20024;-69
2021/08/10 02:24:04;;;;;;;9.70;6.63;;;;;;;;;;5065763;28;20032;-69
2021/08/10 02:26:31;;;;;;;10.00;5.85;;;;;;;;;;5073346;28;20105;-74
2021/08/10 02:28:58;;;;;;;10.07;6.30;;;;;;;;;;5060512;28;20557;-68
2021/08/10 02:31:25;;;;;;;10.77;6.03;;;;;;;;;;5068771;28;20055;-68
2021/08/10 02:33:52;;;;;;;7.63;5.90;;;;;;;;;;5070209;28;20027;-68
2021/08/10 02:36:19;;;;;;;9.27;6.35;;;;;;;;;;5067774;28;20081;-68
2021/08/10 02:38:45;;;;;;;8.20;6.32;;;;;;;;;;5070653;28;20025;-68
2021/08/10 02:41:12;;;;;;;9.43;6.60;;;;;;;;;;5068191;28;20454;-68
2021/08/10 02:43:40;;;;;;;11.10;6.65;;;;;;;;;;5076567;28;20045;-68
2021/08/10 02:46:06;;;;;;;13.32;6.40;;;;;;;;;;5068498;28;20060;-68
2021/08/10 02:48:32;;;;;;;8.63;5.90;;;;;;;;;;5072774;28;20040;-69
2021/08/10 02:50:59;;;;;;;11.68;5.97;;;;;;;;;;5072274;28;20620;-69
2021/08/10 02:53:25;;;;;;;14.38;7.00;;;;;;;;;;5075445;28;20039;-69
2021/08/10 02:55:55;;;;;;;12.68;6.72;;;;;;;;;;5071058;28;20024;-72
2021/08/10 02:58:25;;;;;;;9.27;6.15;;;;;;;;;;5070896;28;20562;-68
2021/08/10 03:01:05;;;;;;;7.97;6.32;;;;;;;;;;5070358;28;20025;-67
2021/08/10 03:03:32;;;;;;;10.90;6.03;;;;;;;;;;5074050;28;20090;-68
2021/08/10 03:05:59;;;;;;;11.05;6.57;;;;;;;;;;5073868;28;20056;-68
2021/08/10 03:08:30;;;;;;;11.50;6.80;;;;;;;;;;5082533;28;20110;-68
2021/08/10 03:10:57;;;;;;;10.63;6.78;;;;;;;;;;5084375;28;20020;-69
2021/08/10 03:13:28;;;;;;;11.88;6.75;;;;;;;;;;5083128;28;20024;-68
2021/08/10 03:15:56;;;;;;;14.35;7.50;;;;;;;;;;5084287;28;20089;-68
2021/08/10 03:18:27;;;;;;;10.10;6.50;;;;;;;;;;5083936;28;20343;-68
2021/08/10 03:20:57;;;;;;;10.25;6.20;;;;;;;;;;5083909;28;20028;-69
2021/08/10 03:23:24;;;;;;;16.48;6.43;;;;;;;;;;5083012;28;20113;-68
2021/08/10 03:25:51;;;;;;;11.77;6.78;;;;;;;;;;5084056;28;20056;-69
2021/08/10 03:28:18;;;;;;;12.02;6.47;;;;;;;;;;5084222;28;20075;-68
2021/08/10 03:30:44;;;;;;;15.35;5.85;;;;;;;;;;5072301;28;20025;-68
2021/08/10 03:33:10;;;;;;;16.10;5.32;;;;;;;;;;5083565;28;20100;-68
2021/08/10 03:35:37;;;;;;;15.27;6.10;;;;;;;;;;5083445;28;20090;-68
2021/08/10 03:38:04;;;;;;;12.95;6.22;;;;;;;;;;5080710;28;20024;-68
2021/08/10 03:40:30;;;;;;;11.70;6.93;;;;;;;;;;5082644;28;20385;-68
2021/08/10 03:42:57;;;;;;;10.95;7.80;;;;;;;;;;5084035;28;20039;-68
2021/08/10 03:45:26;;;;;;;12.07;6.90;;;;;;;;;;5084180;28;20541;-68
2021/08/10 03:47:53;;;;;;;11.32;7.00;;;;;;;;;;5082122;28;20547;-68
2021/08/10 03:50:20;;;;;;;9.65;6.50;;;;;;;;;;5083943;28;20051;-68
2021/08/10 03:52:48;;;;;;;9.02;7.03;;;;;;;;;;5082690;28;20521;-68
2021/08/10 03:55:14;;;;;;;8.63;6.57;;;;;;;;;;5078195;28;20100;-68
2021/08/10 03:57:41;;;;;;;16.38;6.90;;;;;;;;;;5073695;28;20495;-68
2021/08/10 04:00:07;;;;;;;8.68;5.70;;;;;;;;;;5082449;28;20793;-73
2021/08/10 04:02:34;;;;;;;8.63;6.10;;;;;;;;;;5073424;28;20032;-68
2021/08/10 04:05:00;;;;;;;12.48;6.00;;;;;;;;;;5083509;28;20020;-68
2021/08/10 04:07:28;;;;;;;10.60;5.43;;;;;;;;;;5081948;28;20032;-68
2021/08/10 04:09:55;;;;;;;14.80;6.43;;;;;;;;;;5083216;28;20020;-69
2021/08/10 04:12:21;;;;;;;10.15;6.82;;;;;;;;;;5081811;28;20035;-68
2021/08/10 04:14:48;;;;;;;12.15;6.53;;;;;;;;;;5083749;28;20071;-68
2021/08/10 04:17:14;;;;;;;16.88;7.22;;;;;;;;;;5081485;28;20016;-68
2021/08/10 04:19:52;;;;;;;10.15;6.68;;;;;;;;;;5081850;28;20032;-68
2021/08/10 04:22:19;;;;;;;9.35;6.53;;;;;;;;;;5083237;28;20619;-68
2021/08/10 04:24:45;;;;;;;9.73;6.40;;;;;;;;;;5081331;28;20034;-70
2021/08/10 04:27:12;;;;;;;7.30;6.50;;;;;;;;;;5077980;28;20035;-68
2021/08/10 04:29:38;;;;;;;14.23;5.32;;;;;;;;;;5083085;28;20020;-68
2021/08/10 04:32:05;;;;;;;17.60;5.15;;;;;;;;;;5082987;28;20016;-72
2021/08/10 04:34:31;;;;;;;14.10;5.25;;;;;;;;;;5081604;28;20036;-68
2021/08/10 04:36:59;;;;;;;18.55;5.63;;;;;;;;;;5082633;28;20024;-68
2021/08/10 04:39:26;;;;;;;11.52;5.43;;;;;;;;;;5068199;28;20611;-68
2021/08/10 04:41:55;;;;;;;13.07;5.70;;;;;;;;;;5082825;28;20035;-68
2021/08/10 04:44:22;;;;;;;10.82;6.60;;;;;;;;;;5080079;28;20581;-68
2021/08/10 04:46:48;;;;;;;16.55;5.72;;;;;;;;;;5082735;28;20115;-68
2021/08/10 04:49:14;;;;;;;15.82;6.22;;;;;;;;;;5082754;28;20016;-68
2021/08/10 04:51:40;;;;;;;14.50;5.78;;;;;;;;;;5080242;28;20119;-69
2021/08/10 04:54:16;;;;;;;11.93;4.75;;;;;;;;;;5076815;28;20032;-68
2021/08/10 04:56:44;;;;;;;9.15;3.88;;;;;;;;;;5066447;28;20059;-68
2021/08/10 04:59:10;;;;;;;10.95;4.22;;;;;;;;;;5082030;28;20024;-68
2021/08/10 05:01:39;;;;;;;11.93;4.40;;;;;;;;;;5081089;28;20043;-71
2021/08/10 05:04:05;;;;;;;14.45;4.50;;;;;;;;;;5067140;28;20107;-69
2021/08/10 05:06:31;;;;;;;13.77;5.25;;;;;;;;;;5074965;28;20707;-69
2021/08/10 05:09:00;;;;;;;13.80;5.68;;;;;;;;;;5072391;28;20105;-69
2021/08/10 05:11:26;;;;;;;14.23;5.82;;;;;;;;;;5067871;28;20025;-68
2021/08/10 05:13:52;;;;;;;15.75;7.15;;;;;;;;;;5071655;28;20384;-70
2021/08/10 05:16:18;;;;;;;13.13;6.95;;;;;;;;;;5065750;28;20417;-75
2021/08/10 05:18:47;;;;;;;13.30;7.47;;;;;;;;;;5070041;28;20044;-70
2021/08/10 05:21:15;;;;;;;10.75;6.35;;;;;;;;;;5068312;28;20745;-69
2021/08/10 05:23:41;;;;;;;15.95;6.35;;;;;;;;;;5067957;28;20029;-70
2021/08/10 05:26:07;;;;;;;13.82;6.63;;;;;;;;;;5071720;28;20021;-69
2021/08/10 05:28:33;;;;;;;11.48;6.40;;;;;;;;;;5071409;28;20044;-70
2021/08/10 05:31:00;;;;;;;14.10;6.43;;;;;;;;;;5072884;28;20104;-70
2021/08/10 05:33:26;;;;;;;11.60;6.65;;;;;;;;;;5067363;28;20043;-70
2021/08/10 05:35:55;;;;;;;11.05;6.05;;;;;;;;;;5071495;28;20525;-70
2021/08/10 05:38:23;;;;;;;12.43;6.15;;;;;;;;;;5067951;28;20016;-69
2021/08/10 05:40:53;;;;;;;16.40;6.03;;;;;;;;;;5068762;28;20019;-69
2021/08/10 05:43:22;;;;;;;10.23;6.05;;;;;;;;;;5067347;28;20020;-69
2021/08/10 05:45:48;;;;;;;17.55;5.00;;;;;;;;;;5065374;28;20035;-69
2021/08/10 05:48:15;;;;;;;6.22;4.57;;;;;;;;;;5067270;28;20115;-72
2021/08/10 05:50:41;;;;;;;11.07;5.78;;;;;;;;;;5063328;28;20512;-69
2021/08/10 05:53:07;;;;;;;11.77;6.43;;;;;;;;;;5070656;28;20037;-69
2021/08/10 05:55:33;;;;;;;12.35;5.10;;;;;;;;;;5067277;28;20017;-73
2021/08/10 05:57:59;;;;;;;10.50;5.60;;;;;;;;;;5068303;28;20480;-69
2021/08/10 06:00:25;;;;;;;10.25;5.93;;;;;;;;;;5066037;28;20025;-70
2021/08/10 06:02:51;;;;;;;9.55;6.10;;;;;;;;;;5066222;28;20526;-69
2021/08/10 06:05:18;;;;;;;13.57;6.28;;;;;;;;;;5069148;28;20614;-69
2021/08/10 06:07:44;;;;;;;10.18;5.47;;;;;;;;;;5066391;28;20505;-69
2021/08/10 06:10:10;;;;;;;10.68;5.85;;;;;;;;;;5071578;28;20505;-70
2021/08/10 06:12:36;;;;;;;21.48;5.15;;;;;;;;;;5066020;28;20490;-69
2021/08/10 06:15:02;;;;;;;10.60;4.70;;;;;;;;;;5065753;28;20040;-69
2021/08/10 06:17:28;;;;;;;12.60;4.65;;;;;;;;;;5070830;28;20115;-70
2021/08/10 06:19:55;;;;;;;18.42;5.15;;;;;;;;;;5074843;28;20021;-71
2021/08/10 06:22:21;;;;;;;15.15;5.28;;;;;;;;;;5072801;28;20047;-69
2021/08/10 06:24:47;;;;;;;13.57;4.80;;;;;;;;;;5072323;28;20023;-70
2021/08/10 06:27:13;;;;;;;13.57;5.22;;;;;;;;;;5074272;28;20038;-69
2021/08/10 06:29:39;;;;;;;14.25;4.43;;;;;;;;;;5069659;28;20074;-69
2021/08/10 06:32:05;;;;;;;12.23;5.43;;;;;;;;;;5073975;28;20675;-71
2021/08/10 06:34:32;;;;;;;11.10;5.15;;;;;;;;;;5068915;28;20029;-70
2021/08/10 06:36:58;;;;;;;14.35;4.78;;;;;;;;;;5072253;28;20054;-73
2021/08/10 06:39:25;;;;;;;17.38;5.45;;;;;;;;;;5069159;28;20021;-70
2021/08/10 06:41:51;;;;;;;23.50;4.90;;;;;;;;;;5069635;28;20017;-69
2021/08/10 06:44:18;;;;;;;16.70;5.15;;;;;;;;;;5073350;28;20527;-70
2021/08/10 06:46:44;;;;;;;23.27;5.65;;;;;;;;;;5073723;28;20041;-69
2021/08/10 06:49:10;;;;;;;16.50;5.88;;;;;;;;;;5069343;28;20103;-70
2021/08/10 06:51:36;;;;;;;13.60;4.97;;;;;;;;;;5073488;28;20151;-70
2021/08/10 06:54:03;;;;;;;10.82;4.50;;;;;;;;;;5065151;28;20035;-69
2021/08/10 06:56:29;;;;;;;15.20;4.18;;;;;;;;;;5083619;28;20023;-69
2021/08/10 06:58:55;;;;;;;17.60;5.15;;;;;;;;;;5069506;28;20158;-70
2021/08/10 07:01:21;;;;;;;12.02;4.75;;;;;;;;;;5073638;28;20032;-70
2021/08/10 07:03:48;;;;;;;11.48;4.55;;;;;;;;;;5068380;28;20067;-69
2021/08/10 07:06:14;;;;;;;11.77;4.75;;;;;;;;;;5072548;28;20024;-70
2021/08/10 07:08:40;;;;;;;10.23;4.72;;;;;;;;;;5074031;28;20487;-70
2021/08/10 07:11:06;;;;;;;12.35;5.28;;;;;;;;;;5068673;28;20033;-70
2021/08/10 07:13:33;;;;;;;12.35;5.03;;;;;;;;;;5072729;28;20038;-70
2021/08/10 07:15:59;;;;;;;10.13;4.60;;;;;;;;;;5070292;28;20717;-69
2021/08/10 07:18:25;;;;;;;8.27;4.43;;;;;;;;;;5074510;28;20048;-69
2021/08/10 07:20:51;;;;;;;8.65;4.18;;;;;;;;;;5071469;28;20093;-70
2021/08/10 07:23:17;;;;;;;17.35;5.13;;;;;;;;;;5068899;28;20032;-69
2021/08/10 07:25:43;;;;;;;10.05;3.90;;;;;;;;;;5074341;28;20439;-70
2021/08/10 07:28:09;;;;;;;11.85;3.88;;;;;;;;;;5067733;28;20041;-69
2021/08/10 07:30:36;;;;;;;14.52;4.40;;;;;;;;;;5069317;28;20139;-69
2021/08/10 07:33:02;;;;;;;16.17;5.25;;;;;;;;;;5068827;28;20567;-69
2021/08/10 07:35:28;;;;;;;10.80;4.25;;;;;;;;;;5068973;28;20108;-69
2021/08/10 07:37:54;;;;;;;14.02;5.10;;;;;;;;;;5073137;28;20055;-70
2021/08/10 07:40:20;;;;;;;16.13;4.40;;;;;;;;;;5068335;28;20028;-69
2021/08/10 07:42:47;;;;;;;15.00;4.60;;;;;;;;;;5069200;28;20033;-71
2021/08/10 07:45:14;;;;;;;11.05;4.72;;;;;;;;;;5069543;28;20021;-69
2021/08/10 07:47:40;;;;;;;10.13;4.38;;;;;;;;;;5070892;28;20031;-70
2021/08/10 07:50:06;;;;;;;11.02;3.67;;;;;;;;;;5072527;28;20035;-69
2021/08/10 07:52:32;;;;;;;16.10;4.07;;;;;;;;;;5070617;28;20032;-69
2021/08/10 07:54:59;;;;;;;11.18;4.13;;;;;;;;;;5068783;28;20024;-69
2021/08/10 07:57:25;;;;;;;14.85;4.28;;;;;;;;;;5068996;28;20048;-69
2021/08/10 07:59:51;;;;;;;16.30;4.43;;;;;;;;;;5071656;28;20021;-70
2021/08/10 08:02:17;;;;;;;14.85;5.00;;;;;;;;;;5068658;28;20021;-69
2021/08/10 08:04:43;;;;;;;12.10;4.20;;;;;;;;;;5065530;28;20035;-70
2021/08/10 08:07:09;;;;;;;11.77;4.72;;;;;;;;;;5073137;28;20024;-69
2021/08/10 08:09:35;;;;;;;14.93;4.38;;;;;;;;;;5069424;28;20298;-70
2021/08/10 08:12:02;;;;;;;12.15;4.68;;;;;;;;;;5071468;28;20058;-69
2021/08/10 08:14:29;;;;;;;13.65;4.68;;;;;;;;;;5068562;28;20503;-69
2021/08/10 08:16:55;;;;;;;12.52;4.53;;;;;;;;;;5070025;28;20025;-69
2021/08/10 08:19:21;;;;;;;12.60;4.40;;;;;;;;;;5070450;28;20045;-69
2021/08/10 08:21:48;;;;;;;12.13;4.18;;;;;;;;;;5070992;28;20036;-69
2021/08/10 08:24:14;;;;;;;13.35;5.05;;;;;;;;;;5064551;28;20020;-70
2021/08/10 08:26:40;;;;;;;16.58;5.10;;;;;;;;;;5071083;28;20028;-75
2021/08/10 08:29:06;;;;;;;13.07;5.07;;;;;;;;;;5066053;28;20051;-74
2021/08/10 08:31:32;;;;;;;11.90;5.05;;;;;;;;;;5069976;28;20386;-75
2021/08/10 08:33:59;;;;;;;9.70;5.30;;;;;;;;;;5067439;28;20024;-74
2021/08/10 08:36:25;;;;;;;9.02;5.05;;;;;;;;;;5066350;28;20512;-76
2021/08/10 08:38:51;;;;;;;12.02;5.13;;;;;;;;;;5083355;28;20024;-75
2021/08/10 08:41:19;;;;;;;10.38;4.93;;;;;;;;;;5066512;28;20081;-75
2021/08/10 08:43:46;;;;;;;10.05;4.97;;;;;;;;;;5068902;28;20031;-73
2021/08/10 08:46:15;;;;;;;13.65;5.20;;;;;;;;;;5071705;28;20037;-74
2021/08/10 08:48:43;;;;;;;6.53;4.95;;;;;;;;;;5062926;28;20032;-75
2021/08/10 08:51:10;;;;;;;9.40;5.70;;;;;;;;;;5068819;28;20526;-74
2021/08/10 08:53:42;;;;;;;10.77;5.60;;;;;;;;;;5068072;28;20027;-73
2021/08/10 08:56:08;;;;;;;8.02;4.85;;;;;;;;;;5075601;28;20024;-73
2021/08/10 08:58:34;;;;;;;10.38;5.35;;;;;;;;;;5071379;28;20016;-74
2021/08/10 09:01:00;;;;;;;12.55;5.65;;;;;;;;;;5067731;28;20100;-76
2021/08/10 09:03:27;;;;;;;7.90;5.45;;;;;;;;;;5067831;28;20397;-74
2021/08/10 09:05:53;;;;;;;6.47;4.78;;;;;;;;;;5067665;28;20067;-73
2021/08/10 09:08:29;;;;;;;9.90;5.70;;;;;;;;;;5068968;28;20098;-74
2021/08/10 09:10:56;;;;;;;10.88;5.72;;;;;;;;;;5071398;28;20024;-73
2021/08/10 09:13:23;;;;;;;13.52;5.65;;;;;;;;;;5060556;28;20598;-74
2021/08/10 09:15:49;;;;;;;10.52;5.72;;;;;;;;;;5069317;28;20085;-76
2021/08/10 09:18:23;;;;;;;8.07;5.38;;;;;;;;;;5063459;28;20040;-74
2021/08/10 09:20:58;;;;;;;8.40;5.45;;;;;;;;;;5068915;28;20170;-73
2021/08/10 09:23:41;;;;;;;9.20;5.53;;;;;;;;;;5069043;28;20024;-73
2021/08/10 09:26:08;;;;;;;13.68;6.75;;;;;;;;;;5073103;28;20019;-74
2021/08/10 09:28:35;;;;;;;9.63;5.78;;;;;;;;;;5067245;28;20040;-73
2021/08/10 09:31:20;;;;;;;13.90;5.50;;;;;;;;;;5068928;28;20035;-74
2021/08/10 09:33:46;;;;;;;14.45;5.38;;;;;;;;;;5065711;28;20029;-74
2021/08/10 09:36:19;;;;;;;15.45;5.93;;;;;;;;;;5070767;28;20502;-74
2021/08/10 09:38:49;;;;;;;15.05;5.03;;;;;;;;;;5068767;28;20048;-74
2021/08/10 09:41:15;;;;;;;13.68;4.97;;;;;;;;;;5069035;28;20035;-74
2021/08/10 09:43:41;;;;;;;11.05;5.05;;;;;;;;;;5068038;28;20027;-74
2021/08/10 09:46:14;;;;;;;12.15;5.03;;;;;;;;;;5068022;28;20025;-74
2021/08/10 09:48:42;;;;;;;14.38;5.00;;;;;;;;;;5067832;28;20032;-74
2021/08/10 09:51:11;;;;;;;13.18;5.10;;;;;;;;;;5068291;28;20102;-74
2021/08/10 09:53:37;;;;;;;9.77;4.60;;;;;;;;;;5070813;28;20036;-73
2021/08/10 09:56:04;;;;;;;9.90;4.88;;;;;;;;;;5064771;28;20024;-75
2021/08/10 09:58:30;;;;;;;10.57;5.47;;;;;;;;;;5071071;28;20031;-73
2021/08/10 10:01:01;;;;;;;12.38;5.45;;;;;;;;;;5062748;28;20038;-73
2021/08/10 10:03:30;;;;;;;10.88;5.28;;;;;;;;;;5067574;28;20632;-74
2021/08/10 10:05:57;;;;;;;10.60;5.45;;;;;;;;;;5069038;28;20035;-75
2021/08/10 10:08:26;;;;;;;10.27;5.25;;;;;;;;;;5062849;28;20043;-73
2021/08/10 10:10:54;;;;;;;10.57;5.75;;;;;;;;;;5063034;28;20362;-74
2021/08/10 10:13:22;;;;;;;15.18;5.65;;;;;;;;;;5067329;28;20102;-74
2021/08/10 10:15:48;;;;;;;11.10;5.65;;;;;;;;;;5071828;28;20032;-73
2021/08/10 10:18:15;;;;;;;9.80;5.15;;;;;;;;;;5061885;28;20045;-74
2021/08/10 10:20:42;;;;;;;12.73;5.75;;;;;;;;;;5069531;28;20057;-75
2021/08/10 10:23:10;;;;;;;10.20;5.43;;;;;;;;;;5068565;28;20051;-75
2021/08/10 10:25:36;;;;;;;11.10;5.57;;;;;;;;;;5068157;28;20031;-74
2021/08/10 10:28:02;;;;;;;12.82;5.65;;;;;;;;;;5064769;28;20688;-73
2021/08/10 10:30:29;;;;;;;10.75;5.03;;;;;;;;;;5066569;28;20037;-74
2021/08/10 10:32:56;;;;;;;14.27;5.68;;;;;;;;;;5070463;28;20034;-76
2021/08/10 10:35:22;;;;;;;11.70;5.60;;;;;;;;;;5068894;28;20028;-74
2021/08/10 10:37:49;;;;;;;14.52;5.65;;;;;;;;;;5069855;28;20476;-75
2021/08/10 10:40:17;;;;;;;15.52;5.07;;;;;;;;;;5064130;28;20017;-74
2021/08/10 10:42:45;;;;;;;7.60;4.53;;;;;;;;;;5068567;28;20384;-74
2021/08/10 10:45:35;;;;;;;11.73;5.03;;;;;;;;;;5067603;28;20361;-74
2021/08/10 10:48:01;;;;;;;13.77;5.80;;;;;;;;;;5067668;28;20139;-74
2021/08/10 10:50:27;;;;;;;12.45;5.53;;;;;;;;;;5067651;28;20017;-74
2021/08/10 10:53:01;;;;;;;9.30;5.30;;;;;;;;;;5066379;28;20077;-74
2021/08/10 10:55:37;;;;;;;13.10;5.57;;;;;;;;;;5069719;28;20028;-75
2021/08/10 10:58:38;;;;;;;9.73;5.30;;;;;;;;;;5067240;28;20021;-74
2021/08/10 11:01:15;;;;;;;18.73;16.30;;;;;;;;;;4986139;28;21140;-73
2021/08/10 11:03:44;;;;;;;13.18;8.20;;;;;;;;;;5059861;28;20043;-73
2021/08/10 11:06:30;;;;;;;10.20;7.00;;;;;;;;;;5067497;28;20557;-73
2021/08/10 11:08:56;;;;;;;7.75;6.45;;;;;;;;;;5071275;28;20081;-74
2021/08/10 11:11:49;;;;;;;10.90;5.80;;;;;;;;;;5064397;28;20032;-74
2021/08/10 11:14:33;;;;;;;11.90;5.85;;;;;;;;;;5068522;28;20087;-73
2021/08/10 11:17:09;;;;;;;7.85;4.93;;;;;;;;;;5072363;28;20456;-74
2021/08/10 11:19:36;;;;;;;11.00;5.68;;;;;;;;;;5074216;28;20036;-73
2021/08/10 11:22:17;;;;;;;7.70;5.55;;;;;;;;;;5067375;28;20032;-73
2021/08/10 11:24:46;;;;;;;;;;;;;;;;;;5074227;28;20040;-74
2021/08/10 11:27:29;;;;;;;8.85;5.65;;;;;;;;;;5070656;28;19968;-74
2021/08/10 11:29:55;;;;;;;10.00;5.35;;;;;;;;;;5064007;28;20023;-74
2021/08/10 11:32:35;;;;;;;10.50;5.47;;;;;;;;;;5070143;28;20032;-74
2021/08/10 11:35:20;;;;;;;9.73;5.50;;;;;;;;;;5065878;28;20024;-75
2021/08/10 11:38:05;;;;;;;7.22;5.35;;;;;;;;;;5070827;28;20261;-74
2021/08/10 11:40:36;;;;;;;10.70;4.93;;;;;;;;;;5068843;28;20036;-74
2021/08/10 11:43:02;;;;;;;8.65;4.72;;;;;;;;;;5069585;28;20020;-74
2021/08/10 11:45:35;;;;;;;17.05;5.43;;;;;;;;;;5070829;28;20070;-74
2021/08/10 11:48:01;;;;;;;13.30;5.53;;;;;;;;;;5072412;28;20147;-74
2021/08/10 11:50:28;;;;;;;12.27;4.78;;;;;;;;;;5070341;28;20029;-73
2021/08/10 11:52:54;;;;;;;13.65;5.20;;;;;;;;;;5068134;28;20074;-74
2021/08/10 11:55:28;;;;;;;10.02;4.57;;;;;;;;;;5068676;28;20025;-74
2021/08/10 11:57:55;;;;;;;13.25;4.50;;;;;;;;;;5070363;28;20516;-74
2021/08/10 12:00:21;;;;;;;12.77;4.57;;;;;;;;;;5069771;28;20042;-75
2021/08/10 12:02:47;;;;;;;14.65;4.95;;;;;;;;;;5066445;28;20125;-74
2021/08/10 12:05:14;;;;;;;16.98;5.13;;;;;;;;;;5074220;28;20025;-75
2021/08/10 12:07:49;;;;;;;12.10;4.72;;;;;;;;;;5070173;28;20021;-75
2021/08/10 12:10:20;;;;;;;15.75;4.85;;;;;;;;;;5068061;28;20036;-74
2021/08/10 12:12:47;;;;;;;14.52;5.53;;;;;;;;;;5067366;28;20353;-74
2021/08/10 12:15:33;;;;;;;16.38;5.30;;;;;;;;;;5069713;28;20131;-74
2021/08/10 12:17:59;;;;;;;11.68;4.22;;;;;;;;;;5073338;28;20655;-74
2021/08/10 12:20:25;;;;;;;18.55;5.22;;;;;;;;;;5069202;28;20028;-74
2021/08/10 12:23:05;;;;;;;14.40;4.38;;;;;;;;;;5068699;28;20024;-74
2021/08/10 12:25:31;;;;;;;14.43;4.35;;;;;;;;;;5071120;28;20029;-74
2021/08/10 12:28:08;;;;;;;8.82;4.65;;;;;;;;;;5066934;28;20036;-74
2021/08/10 12:30:37;;;;;;;15.23;4.88;;;;;;;;;;5066864;28;20041;-74
2021/08/10 12:33:16;;;;;;;11.50;5.40;;;;;;;;;;5065752;28;20039;-73
2021/08/10 12:36:01;;;;;;;9.90;4.57;;;;;;;;;;5066293;28;20024;-74
2021/08/10 12:38:27;;;;;;;14.70;5.40;;;;;;;;;;5068170;28;20077;-74
2021/08/10 12:40:54;;;;;;;16.02;5.50;;;;;;;;;;5068300;28;20586;-74
2021/08/10 12:43:21;;;;;;;10.45;4.57;;;;;;;;;;5067882;28;20032;-74
2021/08/10 12:45:47;;;;;;;12.98;5.45;;;;;;;;;;5069994;28;20492;-73
2021/08/10 12:48:34;;;;;;;16.40;5.85;;;;;;;;;;5069485;28;20047;-73
2021/08/10 12:51:02;;;;;;;9.32;4.97;;;;;;;;;;5071237;28;20020;-73
2021/08/10 12:53:32;;;;;;;20.50;6.18;;;;;;;;;;5069617;28;20026;-74
2021/08/10 12:55:59;;;;;;;16.48;5.72;;;;;;;;;;5064973;28;20017;-74
2021/08/10 12:58:26;;;;;;;9.00;4.90;;;;;;;;;;5070682;28;20024;-73
2021/08/10 13:00:59;;;;;;;12.05;5.20;;;;;;;;;;5073336;28;20100;-73
2021/08/10 13:03:25;;;;;;;16.52;5.93;;;;;;;;;;5068304;28;20071;-74
2021/08/10 13:05:54;;;;;;;10.55;4.95;;;;;;;;;;5069893;28;20033;-74
2021/08/10 13:08:20;;;;;;;11.77;5.07;;;;;;;;;;5068211;28;20064;-74
2021/08/10 13:10:46;;;;;;;12.55;5.30;;;;;;;;;;5072264;28;20024;-74
2021/08/10 13:13:38;;;;;;;9.48;4.93;;;;;;;;;;5073251;28;20050;-74
2021/08/10 13:16:05;;;;;;;13.02;5.43;;;;;;;;;;5068750;28;20506;-73
2021/08/10 13:18:32;;;;;;;16.65;5.50;;;;;;;;;;5069672;28;20052;-73
2021/08/10 13:21:05;;;;;;;12.55;5.22;;;;;;;;;;5074742;28;20020;-74
2021/08/10 13:23:33;;;;;;;14.43;5.45;;;;;;;;;;5071120;28;20044;-73
2021/08/10 13:26:03;;;;;;;13.52;5.20;;;;;;;;;;5069393;28;20094;-74
2021/08/10 13:28:34;;;;;;;15.65;5.38;;;;;;;;;;5072025;28;20042;-74
2021/08/10 13:31:16;;;;;;;9.20;4.72;;;;;;;;;;5069633;28;20100;-73
2021/08/10 13:33:52;;;;;;;11.25;5.53;;;;;;;;;;5070041;28;20598;-73
2021/08/10 13:36:18;;;;;;;11.60;5.32;;;;;;;;;;5069531;28;20023;-73
2021/08/10 13:38:44;;;;;;;10.00;5.47;;;;;;;;;;5071682;28;20028;-74
2021/08/10 13:41:10;;;;;;;11.18;5.70;;;;;;;;;;5073877;28;20507;-73
2021/08/10 13:43:36;;;;;;;14.65;5.20;;;;;;;;;;5073759;28;20027;-73
2021/08/10 13:46:03;;;;;;;13.07;5.60;;;;;;;;;;5068383;28;20139;-73
2021/08/10 13:48:29;;;;;;;14.55;5.05;;;;;;;;;;5069302;28;20039;-73
2021/08/10 13:50:55;;;;;;;15.90;5.35;;;;;;;;;;5070486;28;20105;-73
2021/08/10 13:53:22;;;;;;;11.73;5.20;;;;;;;;;;5071199;28;20027;-74
2021/08/10 13:55:48;;;;;;;11.30;4.80;;;;;;;;;;5068948;28;20032;-74
2021/08/10 13:58:14;;;;;;;18.98;6.38;;;;;;;;;;5068469;28;20039;-74
2021/08/10 14:00:41;;;;;;;11.45;4.82;;;;;;;;;;5070153;28;20016;-74
2021/08/10 14:03:07;;;;;;;7.97;5.03;;;;;;;;;;5061937;28;20528;-74
2021/08/10 14:05:33;;;;;;;14.82;5.20;;;;;;;;;;5070745;28;20059;-73
2021/08/10 14:07:59;;;;;;;13.95;5.57;;;;;;;;;;5067107;28;20546;-74
2021/08/10 14:10:25;;;;;;;14.68;5.20;;;;;;;;;;5069038;28;20095;-72
2021/08/10 14:12:51;;;;;;;19.15;5.88;;;;;;;;;;5068173;28;20029;-73
2021/08/10 14:15:18;;;;;;;18.00;4.63;;;;;;;;;;5066616;28;20028;-73
2021/08/10 14:17:45;;;;;;;15.57;5.28;;;;;;;;;;5070681;28;20044;-73
2021/08/10 14:20:11;;;;;;;11.93;5.47;;;;;;;;;;5064989;28;20020;-73
2021/08/10 14:22:37;;;;;;;14.68;6.30;;;;;;;;;;5068660;28;20027;-73
2021/08/10 14:25:05;;;;;;;10.55;5.80;;;;;;;;;;5065193;28;20039;-73
2021/08/10 14:27:32;;;;;;;18.15;5.63;;;;;;;;;;5064917;28;20090;-73
2021/08/10 14:29:58;;;;;;;10.32;4.68;;;;;;;;;;5065680;28;20029;-73
2021/08/10 14:32:24;;;;;;;13.18;4.97;;;;;;;;;;5066553;28;20033;-73
2021/08/10 14:34:51;;;;;;;14.65;5.30;;;;;;;;;;5068030;28;20646;-74
2021/08/10 14:37:17;;;;;;;16.75;5.07;;;;;;;;;;5069254;28;20029;-73
2021/08/10 14:39:43;;;;;;;15.63;5.28;;;;;;;;;;5072139;28;20032;-72